Time;durP1;ratioP1;P1;durP2;ratioP2;P2;SDS_P1;SDS_P2;PMS_P1;PMS_P2;Temp;Humidity;BMP_temperature;BMP_pressure;BME280_temperature;BME280_humidity;BME280_pressure;Samples;Min_cycle;Max_cycle;Signal;HPM_P1;HPM_P2
2022/05/18 00:00:03;;;;;;;5.03;1.40;;;20.70;64.50;;;;;;5056374;28;20096;-66
2022/05/18 00:02:29;;;;;;;5.28;1.33;;;20.70;64.70;;;;;;5042259;28;20043;-66
2022/05/18 00:04:54;;;;;;;5.75;1.35;;;20.70;64.70;;;;;;5038251;28;20022;-66
2022/05/18 00:07:20;;;;;;;5.07;1.27;;;20.60;64.70;;;;;;5038533;28;20033;-66
2022/05/18 00:09:46;;;;;;;5.72;1.33;;;20.60;64.60;;;;;;5039230;28;20021;-66
2022/05/18 00:12:11;;;;;;;3.42;1.13;;;20.50;64.60;;;;;;5046537;28;20029;-66
2022/05/18 00:14:38;;;;;;;13.27;6.25;;;20.50;64.50;;;;;;5034332;28;20030;-66
2022/05/18 00:17:04;;;;;;;10.35;4.10;;;20.40;64.20;;;;;;5033558;28;20056;-66
2022/05/18 00:19:33;;;;;;;7.30;1.67;;;20.30;64.00;;;;;;5033708;28;20022;-66
2022/05/18 00:21:59;;;;;;;5.50;1.65;;;20.20;64.30;;;;;;5034521;28;20519;-66
2022/05/18 00:24:25;;;;;;;5.50;1.40;;;20.10;64.20;;;;;;5034234;28;20025;-66
2022/05/18 00:26:51;;;;;;;2.92;1.20;;;20.10;64.20;;;;;;5033069;28;20044;-66
2022/05/18 00:29:17;;;;;;;6.47;1.48;;;20.10;64.30;;;;;;5048761;28;20021;-66
2022/05/18 00:31:43;;;;;;;5.80;1.48;;;20.00;65.00;;;;;;5034731;28;20047;-66
2022/05/18 00:34:09;;;;;;;4.45;1.20;;;20.00;64.10;;;;;;5037261;28;20043;-66
2022/05/18 00:36:35;;;;;;;4.07;1.40;;;19.90;64.40;;;;;;5032606;28;20059;-66
2022/05/18 00:39:02;;;;;;;4.32;1.30;;;19.80;64.80;;;;;;5037591;28;20488;-66
2022/05/18 00:41:27;;;;;;;6.18;1.42;;;19.80;65.00;;;;;;5030198;28;20057;-66
2022/05/18 00:43:54;;;;;;;5.22;1.30;;;19.70;65.00;;;;;;5033926;28;20033;-66
2022/05/18 00:46:21;;;;;;;4.28;1.15;;;19.70;64.90;;;;;;5034122;28;20033;-66
2022/05/18 00:48:47;;;;;;;4.00;1.30;;;19.60;64.60;;;;;;5033898;28;20035;-66
2022/05/18 00:51:29;;;;;;;4.18;1.30;;;19.50;64.60;;;;;;5034415;28;20039;-66
2022/05/18 00:54:17;;;;;;;4.32;1.30;;;19.50;65.10;;;;;;5029781;28;20025;-66
2022/05/18 00:56:52;;;;;;;6.70;1.50;;;19.50;65.30;;;;;;5032848;28;20167;-66
2022/05/18 00:59:22;;;;;;;5.97;1.52;;;19.50;65.10;;;;;;5037787;28;20032;-67
2022/05/18 01:01:50;;;;;;;3.88;1.38;;;19.50;65.00;;;;;;5041875;28;20064;-66
2022/05/18 01:04:16;;;;;;;4.88;1.50;;;19.50;65.00;;;;;;5039812;28;20025;-66
2022/05/18 01:06:59;;;;;;;5.78;1.90;;;19.40;64.80;;;;;;5032259;28;20401;-66
2022/05/18 01:09:29;;;;;;;3.28;1.33;;;19.30;64.70;;;;;;5037662;28;20025;-66
2022/05/18 01:11:55;;;;;;;7.70;1.60;;;19.30;64.50;;;;;;5059169;28;20033;-66
2022/05/18 01:14:27;;;;;;;4.72;1.40;;;19.20;64.20;;;;;;5036528;28;20542;-66
2022/05/18 01:16:53;;;;;;;5.82;1.90;;;19.10;64.10;;;;;;5039254;28;20417;-67
2022/05/18 01:19:36;;;;;;;6.40;1.92;;;19.00;64.60;;;;;;5036321;28;20114;-66
2022/05/18 01:22:25;;;;;;;6.35;1.90;;;18.90;65.20;;;;;;5040790;28;20388;-66
2022/05/18 01:25:02;;;;;;;5.93;1.70;;;18.80;65.70;;;;;;5034782;28;20495;-66
2022/05/18 01:27:27;;;;;;;4.65;1.60;;;18.80;65.60;;;;;;5043875;28;20136;-66
2022/05/18 01:29:55;;;;;;;5.95;1.83;;;18.70;65.60;;;;;;5035815;28;20128;-66
2022/05/18 01:32:21;;;;;;;5.18;1.65;;;18.70;65.50;;;;;;5045704;28;20485;-66
2022/05/18 01:34:46;;;;;;;3.20;1.30;;;18.70;65.20;;;;;;5044466;28;20480;-66
2022/05/18 01:37:15;;;;;;;7.32;2.03;;;18.60;64.70;;;;;;5038362;28;20064;-66
2022/05/18 01:39:50;;;;;;;5.40;1.90;;;18.50;64.10;;;;;;5030757;28;20079;-66
2022/05/18 01:42:25;;;;;;;5.45;1.70;;;18.40;64.10;;;;;;5041450;28;20049;-66
2022/05/18 01:44:50;;;;;;;4.55;1.77;;;18.30;64.30;;;;;;5047771;28;21011;-66
2022/05/18 01:47:16;;;;;;;7.28;1.50;;;18.30;64.70;;;;;;5034420;28;20029;-66
2022/05/18 01:49:44;;;;;;;4.53;1.67;;;18.30;64.80;;;;;;5032636;28;20084;-66
2022/05/18 01:52:10;;;;;;;6.00;1.80;;;18.30;64.40;;;;;;5032375;28;20018;-66
2022/05/18 01:54:42;;;;;;;5.15;1.60;;;18.20;64.30;;;;;;5032321;28;20038;-66
2022/05/18 01:57:08;;;;;;;6.85;2.13;;;18.20;64.70;;;;;;5054796;28;20036;-66
2022/05/18 01:59:35;;;;;;;6.38;2.00;;;18.20;64.80;;;;;;5030690;28;20037;-66
2022/05/18 02:02:01;;;;;;;4.05;1.70;;;18.20;64.90;;;;;;5040078;28;20022;-66
2022/05/18 02:04:26;;;;;;;5.28;1.83;;;18.10;64.90;;;;;;5045955;28;20074;-66
2022/05/18 02:06:52;;;;;;;4.13;1.55;;;18.10;64.70;;;;;;5041565;28;20033;-66
2022/05/18 02:09:19;;;;;;;6.00;1.98;;;18.10;64.70;;;;;;5038860;28;20036;-66
2022/05/18 02:11:46;;;;;;;4.38;1.70;;;18.00;64.80;;;;;;5040023;28;20036;-66
2022/05/18 02:14:11;;;;;;;5.13;1.80;;;18.00;64.50;;;;;;5030539;28;20033;-66
2022/05/18 02:16:38;;;;;;;4.53;1.88;;;17.90;63.90;;;;;;5032074;28;20048;-66
2022/05/18 02:19:04;;;;;;;5.90;1.98;;;17.90;64.30;;;;;;5038231;28;20033;-66
2022/05/18 02:21:29;;;;;;;5.57;1.70;;;17.90;64.30;;;;;;5031724;28;20112;-66
2022/05/18 02:23:56;;;;;;;6.57;2.00;;;17.80;64.50;;;;;;5041304;28;20064;-66
2022/05/18 02:26:21;;;;;;;4.75;1.98;;;17.80;64.50;;;;;;5033427;28;20051;-66
2022/05/18 02:28:48;;;;;;;6.43;2.33;;;17.80;64.60;;;;;;5030635;28;20037;-66
2022/05/18 02:31:14;;;;;;;6.18;2.10;;;17.70;64.50;;;;;;5039799;28;20555;-66
2022/05/18 02:33:40;;;;;;;4.22;1.70;;;17.70;64.50;;;;;;5045987;28;20067;-66
2022/05/18 02:36:07;;;;;;;9.90;2.30;;;17.60;64.00;;;;;;5037289;28;20064;-66
2022/05/18 02:38:34;;;;;;;8.98;2.30;;;17.50;63.50;;;;;;5046800;28;20036;-66
2022/05/18 02:41:00;;;;;;;5.45;2.40;;;17.50;63.30;;;;;;5042200;28;20045;-66
2022/05/18 02:43:27;;;;;;;6.78;2.30;;;17.40;64.10;;;;;;5031314;28;20017;-66
2022/05/18 02:46:07;;;;;;;5.95;2.28;;;17.40;64.80;;;;;;5032781;28;20034;-66
2022/05/18 02:48:33;;;;;;;6.90;2.13;;;17.40;64.90;;;;;;5046217;28;20037;-66
2022/05/18 02:50:59;;;;;;;5.72;2.10;;;17.30;64.70;;;;;;5038657;28;20117;-66
2022/05/18 02:53:25;;;;;;;5.03;2.10;;;17.30;64.30;;;;;;5044575;28;20100;-66
2022/05/18 02:56:06;;;;;;;5.30;2.13;;;17.20;63.90;;;;;;5045589;28;20024;-66
2022/05/18 02:58:36;;;;;;;;;;;17.20;63.70;;;;;;5037977;28;20041;-66
2022/05/18 03:01:04;;;;;;;4.38;1.80;;;17.10;63.60;;;;;;5031918;28;19913;-66
2022/05/18 03:03:30;;;;;;;5.93;2.00;;;17.10;63.60;;;;;;5040674;28;20044;-66
2022/05/18 03:05:56;;;;;;;4.65;2.03;;;17.00;63.40;;;;;;5043484;28;20034;-66
2022/05/18 03:08:22;;;;;;;5.78;2.30;;;17.00;63.80;;;;;;5034191;28;20400;-66
2022/05/18 03:10:47;;;;;;;4.68;2.15;;;17.00;64.00;;;;;;5031432;28;20045;-66
2022/05/18 03:13:13;;;;;;;4.25;2.20;;;17.10;64.70;;;;;;5042077;28;20032;-66
2022/05/18 03:15:39;;;;;;;5.15;2.20;;;17.10;65.20;;;;;;5042536;28;20511;-66
2022/05/18 03:18:04;;;;;;;6.10;2.08;;;17.10;65.30;;;;;;5032188;28;20025;-66
2022/05/18 03:25:59;;;;;;;4.28;2.05;;;17.00;65.60;;;;;;5045515;28;20161;-66
2022/05/18 03:28:24;;;;;;;7.30;2.20;;;16.90;65.60;;;;;;5037739;28;20515;-66
2022/05/18 03:30:50;;;;;;;6.32;2.03;;;16.90;65.70;;;;;;5037109;28;20033;-66
2022/05/18 03:33:16;;;;;;;6.10;2.20;;;16.90;66.10;;;;;;5033298;28;20020;-66
2022/05/18 03:35:41;;;;;;;5.10;2.20;;;16.90;65.80;;;;;;5053543;28;20034;-66
2022/05/18 03:38:07;;;;;;;5.40;2.17;;;16.90;65.40;;;;;;5030091;28;20033;-66
2022/05/18 03:40:38;;;;;;;4.65;2.20;;;16.90;66.30;;;;;;5031564;28;20033;-66
2022/05/18 03:43:05;;;;;;;5.93;2.25;;;16.90;65.40;;;;;;5032466;28;20071;-66
2022/05/18 03:45:33;;;;;;;4.70;2.10;;;16.80;65.60;;;;;;5047589;28;20029;-66
2022/05/18 03:47:59;;;;;;;4.97;1.83;;;16.80;65.30;;;;;;5040090;28;20385;-66
2022/05/18 03:50:28;;;;;;;4.90;1.80;;;16.70;65.50;;;;;;5039102;28;20499;-66
2022/05/18 03:52:55;;;;;;;4.53;1.90;;;16.80;64.80;;;;;;5038485;28;20037;-66
2022/05/18 03:55:20;;;;;;;4.97;2.28;;;16.70;64.50;;;;;;5040818;28;20040;-66
2022/05/18 03:57:46;;;;;;;5.60;2.00;;;16.60;64.50;;;;;;5043372;28;20033;-66
2022/05/18 04:00:13;;;;;;;6.68;2.45;;;16.60;65.00;;;;;;5047048;28;20034;-66
2022/05/18 04:02:40;;;;;;;5.38;1.90;;;16.60;65.00;;;;;;5038832;28;20033;-65
2022/05/18 04:05:07;;;;;;;5.80;1.98;;;16.50;65.20;;;;;;5042952;28;20103;-65
2022/05/18 04:07:33;;;;;;;5.78;2.10;;;16.50;65.10;;;;;;5033719;28;20037;-65
2022/05/18 04:09:59;;;;;;;5.38;2.10;;;16.50;65.40;;;;;;5035077;28;20087;-65
2022/05/18 04:12:27;;;;;;;4.63;2.22;;;16.50;65.50;;;;;;5048956;28;20115;-65
2022/05/18 04:14:54;;;;;;;6.38;2.78;;;16.50;65.50;;;;;;5032793;28;20031;-66
2022/05/18 04:17:24;;;;;;;7.68;3.72;;;16.50;65.70;;;;;;5040029;28;20112;-66
2022/05/18 04:19:50;;;;;;;9.55;4.57;;;16.50;65.70;;;;;;5035207;28;20033;-66
2022/05/18 04:22:16;;;;;;;11.20;4.15;;;16.50;65.80;;;;;;5038874;28;20076;-66
2022/05/18 04:24:41;;;;;;;8.38;3.72;;;16.50;65.80;;;;;;5035962;28;20074;-66
2022/05/18 04:27:07;;;;;;;11.35;3.90;;;16.50;65.80;;;;;;5036037;28;20029;-66
2022/05/18 04:29:33;;;;;;;7.72;3.33;;;16.40;65.70;;;;;;5041618;28;20025;-67
2022/05/18 04:31:59;;;;;;;6.10;3.10;;;16.40;65.80;;;;;;5044777;28;20435;-65
2022/05/18 04:34:26;;;;;;;10.00;3.20;;;16.30;65.70;;;;;;5044881;28;20421;-65
2022/05/18 04:36:52;;;;;;;9.07;3.45;;;16.30;65.60;;;;;;5042372;28;20562;-65
2022/05/18 04:39:17;;;;;;;6.95;2.97;;;16.30;66.00;;;;;;5040057;28;20029;-66
2022/05/18 04:41:43;;;;;;;64.60;4.82;;;16.30;66.50;;;;;;5030345;28;20702;-67
2022/05/18 04:44:09;;;;;;;36.38;4.05;;;16.30;66.40;;;;;;5047930;28;20041;-66
2022/05/18 04:46:35;;;;;;;18.27;3.03;;;16.30;65.90;;;;;;5039245;28;20030;-66
